createdAt,value
2017-08-23T00:00:11.630Z,6.23
2017-08-23T00:02:39.079Z,5.40
2017-08-23T00:05:06.557Z,5.50
2017-08-23T00:07:34.020Z,6.40
2017-08-23T00:10:01.474Z,5.77
2017-08-23T00:12:28.919Z,5.57
2017-08-23T00:14:56.384Z,6.10
2017-08-23T00:17:23.831Z,5.60
2017-08-23T00:19:51.275Z,5.80
2017-08-23T00:22:18.736Z,6.97
2017-08-23T00:24:46.280Z,6.77
2017-08-23T00:27:13.841Z,6.37
2017-08-23T00:29:41.398Z,6.23
2017-08-23T00:32:08.889Z,6.77
2017-08-23T00:34:36.362Z,6.60
2017-08-23T00:37:03.798Z,5.90
2017-08-23T00:39:31.243Z,7.10
2017-08-23T00:41:58.696Z,7.03
2017-08-23T00:44:26.181Z,7.10
2017-08-23T00:46:53.624Z,6.57
2017-08-23T00:49:21.093Z,6.90
2017-08-23T00:51:48.535Z,6.70
2017-08-23T00:54:16.764Z,6.83
2017-08-23T00:56:44.201Z,7.50
2017-08-23T00:59:11.649Z,7.50
2017-08-23T01:01:39.119Z,7.03
2017-08-23T01:04:06.553Z,7.87
2017-08-23T01:06:34.020Z,7.20
2017-08-23T01:09:01.464Z,6.50
2017-08-23T01:11:28.913Z,6.63
2017-08-23T01:13:56.372Z,7.30
2017-08-23T01:16:23.840Z,7.13
2017-08-23T01:18:51.302Z,7.60
2017-08-23T01:21:18.732Z,6.60
2017-08-23T01:23:46.196Z,7.80
2017-08-23T01:26:13.641Z,7.40
2017-08-23T01:28:41.095Z,8.27
2017-08-23T01:31:08.540Z,7.00
2017-08-23T01:33:35.992Z,7.43
2017-08-23T01:36:03.452Z,7.37
2017-08-23T01:38:30.924Z,8.60
2017-08-23T01:40:58.370Z,7.60
2017-08-23T01:43:25.855Z,7.87
2017-08-23T01:45:53.328Z,8.40
2017-08-23T01:48:20.796Z,8.67
2017-08-23T01:50:48.257Z,8.00
2017-08-23T01:53:15.708Z,7.47
2017-08-23T01:55:43.225Z,8.20
2017-08-23T01:58:10.681Z,8.20
2017-08-23T02:00:38.120Z,7.37
2017-08-23T02:03:05.592Z,9.07
2017-08-23T02:05:33.036Z,8.00
2017-08-23T02:08:00.513Z,7.23
2017-08-23T02:10:27.969Z,8.03
2017-08-23T02:12:55.448Z,7.50
2017-08-23T02:15:22.881Z,8.53
2017-08-23T02:17:50.348Z,8.93
2017-08-23T02:20:17.817Z,8.70
2017-08-23T02:22:45.256Z,7.50
2017-08-23T02:25:12.717Z,7.40
2017-08-23T02:27:40.176Z,7.30
2017-08-23T02:30:07.615Z,7.20
2017-08-23T02:32:35.069Z,7.13
2017-08-23T02:35:02.506Z,7.33
2017-08-23T02:37:29.964Z,7.50
2017-08-23T02:39:57.432Z,7.50
2017-08-23T02:42:24.878Z,7.30
2017-08-23T02:44:52.340Z,7.20
2017-08-23T02:47:19.779Z,7.90
2017-08-23T02:49:47.246Z,7.17
2017-08-23T02:52:14.773Z,9.00
2017-08-23T02:54:42.233Z,7.73
2017-08-23T02:57:09.691Z,7.63
2017-08-23T02:59:37.132Z,7.60
2017-08-23T03:02:04.602Z,8.77
2017-08-23T03:04:32.051Z,8.70
2017-08-23T03:06:59.529Z,9.13
2017-08-23T03:09:26.983Z,8.67
2017-08-23T03:11:54.432Z,8.63
2017-08-23T03:14:21.900Z,8.50
2017-08-23T03:16:49.373Z,8.03
2017-08-23T03:19:17.704Z,8.67
2017-08-23T03:21:45.168Z,9.50
2017-08-23T03:24:12.634Z,9.50
2017-08-23T03:26:40.141Z,7.57
2017-08-23T03:29:07.596Z,8.13
2017-08-23T03:31:35.052Z,9.17
2017-08-23T03:34:02.522Z,9.00
2017-08-23T03:36:29.956Z,8.73
2017-08-23T03:38:57.392Z,8.90
2017-08-23T03:41:24.856Z,8.70
2017-08-23T03:43:52.299Z,8.80
2017-08-23T03:46:19.766Z,9.40
2017-08-23T03:48:47.221Z,8.90
2017-08-23T03:51:14.687Z,10.30
2017-08-23T03:53:42.925Z,8.00
2017-08-23T03:56:10.363Z,9.50
2017-08-23T03:58:38.617Z,9.00
2017-08-23T04:01:06.075Z,9.07
2017-08-23T04:03:33.568Z,8.37
2017-08-23T04:06:01.023Z,9.60
2017-08-23T04:08:28.474Z,10.13
2017-08-23T04:10:55.935Z,9.30
2017-08-23T04:13:24.154Z,8.73
2017-08-23T04:15:51.654Z,9.10
2017-08-23T04:18:19.104Z,9.40
2017-08-23T04:20:46.588Z,9.30
2017-08-23T04:23:14.043Z,8.87
2017-08-23T04:25:41.512Z,9.20
2017-08-23T04:28:08.978Z,9.37
2017-08-23T04:30:37.205Z,10.87
2017-08-23T04:33:04.666Z,10.97
2017-08-23T04:35:32.128Z,9.20
2017-08-23T04:38:00.372Z,9.10
2017-08-23T04:40:27.830Z,10.13
2017-08-23T04:42:55.295Z,9.00
2017-08-23T04:45:22.769Z,8.60
2017-08-23T04:47:50.209Z,9.70
2017-08-23T04:50:17.678Z,10.17
2017-08-23T04:52:45.159Z,9.33
2017-08-23T04:55:12.608Z,9.43
2017-08-23T04:57:40.072Z,8.33
2017-08-23T05:00:07.528Z,8.63
2017-08-23T05:02:34.989Z,8.93
2017-08-23T05:05:02.460Z,8.50
2017-08-23T05:07:29.917Z,9.03
2017-08-23T05:09:57.396Z,9.50
2017-08-23T05:12:24.859Z,8.80
2017-08-23T05:14:53.066Z,8.90
2017-08-23T05:17:20.522Z,8.40
2017-08-23T05:19:47.995Z,8.63
2017-08-23T05:22:16.254Z,9.23
2017-08-23T05:24:43.947Z,8.60
2017-08-23T05:27:11.412Z,8.90
2017-08-23T05:29:38.876Z,7.30
2017-08-23T05:32:06.313Z,7.67
2017-08-23T05:34:33.791Z,7.20
2017-08-23T05:37:01.267Z,6.33
2017-08-23T05:39:28.753Z,6.70
2017-08-23T05:41:56.196Z,7.60
2017-08-23T05:44:23.657Z,7.00
2017-08-23T05:46:51.103Z,6.53
2017-08-23T05:49:19.064Z,6.47
2017-08-23T05:51:46.549Z,6.63
2017-08-23T05:54:14.005Z,6.87
2017-08-23T05:56:41.472Z,7.03
2017-08-23T05:59:08.909Z,6.43
2017-08-23T06:01:36.366Z,6.43
2017-08-23T06:04:03.804Z,7.03
2017-08-23T06:06:31.290Z,6.60
2017-08-23T06:08:58.796Z,6.33
2017-08-23T06:11:26.258Z,6.10
2017-08-23T06:13:53.729Z,5.80
2017-08-23T06:16:21.173Z,5.90
2017-08-23T06:18:48.684Z,6.13
2017-08-23T06:21:16.127Z,6.57
2017-08-23T06:23:43.599Z,5.60
2017-08-23T06:26:11.062Z,6.20
2017-08-23T06:28:38.538Z,6.37
2017-08-23T06:31:05.996Z,6.27
2017-08-23T06:33:33.465Z,6.37
2017-08-23T06:36:00.921Z,7.10
2017-08-23T06:38:28.409Z,6.07
2017-08-23T06:40:55.900Z,5.90
2017-08-23T06:43:24.111Z,6.23
2017-08-23T06:45:51.568Z,6.00
2017-08-23T06:48:19.024Z,5.40
2017-08-23T06:50:46.469Z,5.90
2017-08-23T06:53:13.920Z,6.10
2017-08-23T06:55:41.358Z,6.13
2017-08-23T06:58:08.832Z,6.00
2017-08-23T07:00:36.274Z,6.17
2017-08-23T07:03:03.737Z,5.90
2017-08-23T07:05:31.207Z,6.87
2017-08-23T07:07:58.683Z,5.80
2017-08-23T07:10:26.131Z,6.17
2017-08-23T07:12:53.584Z,6.20
2017-08-23T07:15:21.819Z,7.03
2017-08-23T07:17:49.271Z,6.50
2017-08-23T07:20:16.787Z,5.80
2017-08-23T07:22:44.224Z,6.30
2017-08-23T07:25:11.788Z,6.37
2017-08-23T07:27:39.251Z,6.27
2017-08-23T07:30:06.705Z,6.67
2017-08-23T07:32:34.151Z,6.50
2017-08-23T07:35:01.608Z,5.57
2017-08-23T07:37:29.076Z,6.10
2017-08-23T07:39:56.547Z,6.50
2017-08-23T07:42:24.034Z,6.30
2017-08-23T07:44:55.732Z,6.90
2017-08-23T07:47:23.202Z,6.77
2017-08-23T07:49:50.676Z,6.30
2017-08-23T07:52:18.145Z,6.13
2017-08-23T07:54:45.659Z,6.47
2017-08-23T07:57:13.102Z,5.60
2017-08-23T07:59:40.571Z,5.40
2017-08-23T08:02:08.049Z,6.10
2017-08-23T08:04:35.486Z,6.10
2017-08-23T08:07:02.945Z,5.70
2017-08-23T08:09:30.382Z,6.53
2017-08-23T08:11:57.954Z,5.33
2017-08-23T08:14:25.432Z,5.80
2017-08-23T08:16:52.892Z,5.87
2017-08-23T08:19:20.372Z,6.63
2017-08-23T08:21:47.820Z,6.67
2017-08-23T08:24:15.269Z,6.47
2017-08-23T08:26:43.516Z,6.53
2017-08-23T08:29:10.991Z,6.80
2017-08-23T08:31:38.460Z,5.93
2017-08-23T08:34:05.915Z,6.97
2017-08-23T08:36:33.348Z,7.03
2017-08-23T08:39:00.807Z,6.00
2017-08-23T08:41:28.253Z,6.10
2017-08-23T08:43:55.744Z,6.50
2017-08-23T08:46:23.201Z,7.13
2017-08-23T08:48:50.676Z,6.07
2017-08-23T08:51:18.139Z,6.60
2017-08-23T08:53:45.638Z,6.30
2017-08-23T08:56:13.108Z,6.10
2017-08-23T08:58:40.568Z,6.10
2017-08-23T09:01:08.033Z,6.23
2017-08-23T09:03:35.519Z,5.60
2017-08-23T09:06:02.951Z,6.10
2017-08-23T09:08:30.408Z,6.17
2017-08-23T09:10:57.849Z,6.83
2017-08-23T09:13:25.311Z,5.37
2017-08-23T09:15:52.800Z,5.73
2017-08-23T09:18:20.312Z,4.67
2017-08-23T09:20:47.765Z,6.17
2017-08-23T09:23:15.194Z,5.50
2017-08-23T09:25:43.301Z,5.90
2017-08-23T09:28:10.740Z,5.53
2017-08-23T09:30:38.252Z,5.37
2017-08-23T09:33:05.702Z,5.30
2017-08-23T09:35:33.157Z,6.47
2017-08-23T09:38:00.680Z,5.70
2017-08-23T09:40:28.282Z,6.70
2017-08-23T09:42:55.857Z,6.37
2017-08-23T09:45:23.310Z,5.77
2017-08-23T09:47:50.782Z,5.83
2017-08-23T09:50:18.225Z,5.70
2017-08-23T09:52:45.688Z,5.80
2017-08-23T09:55:13.171Z,4.90
2017-08-23T09:57:40.604Z,6.17
2017-08-23T10:00:08.641Z,7.00
2017-08-23T10:02:36.105Z,5.30
2017-08-23T10:05:03.580Z,4.83
2017-08-23T10:07:31.809Z,5.60
2017-08-23T10:09:59.269Z,5.80
2017-08-23T10:12:26.770Z,5.57
2017-08-23T10:14:54.239Z,4.80
2017-08-23T10:17:21.683Z,4.60
2017-08-23T10:19:49.157Z,5.23
2017-08-23T10:22:16.597Z,5.30
2017-08-23T10:24:44.693Z,4.77
2017-08-23T10:27:12.160Z,5.17
2017-08-23T10:29:39.608Z,5.60
2017-08-23T10:32:07.080Z,4.73
2017-08-23T10:34:34.521Z,5.10
2017-08-23T10:37:02.026Z,5.17
2017-08-23T10:39:29.449Z,6.07
2017-08-23T10:41:56.925Z,5.47
2017-08-23T10:44:24.384Z,4.77
2017-08-23T10:46:51.823Z,4.73
2017-08-23T10:49:19.428Z,6.10
2017-08-23T10:51:46.896Z,4.80
2017-08-23T10:54:14.334Z,5.30
2017-08-23T10:56:41.808Z,5.23
2017-08-23T10:59:09.247Z,5.27
2017-08-23T11:01:36.708Z,5.20
2017-08-23T11:04:04.159Z,5.50
2017-08-23T11:06:32.033Z,5.00
2017-08-23T11:08:59.496Z,4.73
2017-08-23T11:11:26.937Z,4.83
2017-08-23T11:13:54.412Z,4.60
2017-08-23T11:16:21.861Z,4.60
2017-08-23T11:18:49.398Z,4.90
2017-08-23T11:21:16.849Z,4.17
2017-08-23T11:23:44.320Z,5.63
2017-08-23T11:26:11.768Z,4.73
2017-08-23T11:28:39.234Z,4.07
2017-08-23T11:31:06.703Z,4.60
2017-08-23T11:33:34.157Z,4.57
2017-08-23T11:36:01.626Z,4.43
2017-08-23T11:38:29.089Z,4.60
2017-08-23T11:40:56.541Z,5.50
2017-08-23T11:43:23.988Z,3.87
2017-08-23T11:45:51.435Z,4.90
2017-08-23T11:48:18.896Z,4.60
2017-08-23T11:50:46.359Z,4.90
2017-08-23T11:53:13.820Z,4.10
2017-08-23T11:55:41.264Z,5.00
2017-08-23T11:58:08.720Z,4.57
2017-08-23T12:00:36.232Z,4.53
2017-08-23T12:03:03.720Z,4.20
2017-08-23T12:05:31.191Z,4.80
2017-08-23T12:07:58.665Z,3.93
2017-08-23T12:10:26.103Z,3.73
2017-08-23T12:12:53.565Z,4.43
2017-08-23T12:15:21.059Z,4.93
2017-08-23T12:17:48.493Z,5.03
2017-08-23T12:20:16.721Z,4.33
2017-08-23T12:22:44.155Z,4.17
2017-08-23T12:25:11.631Z,4.77
2017-08-23T12:27:39.100Z,4.53
2017-08-23T12:30:06.557Z,4.20
2017-08-23T12:32:34.039Z,4.20
2017-08-23T12:35:01.481Z,4.60
2017-08-23T12:37:28.922Z,4.37
2017-08-23T12:39:56.375Z,4.07
2017-08-23T12:42:24.304Z,3.90
2017-08-23T12:44:51.758Z,4.00
2017-08-23T12:47:19.235Z,4.77
2017-08-23T12:49:46.706Z,4.07
2017-08-23T12:52:14.138Z,4.07
2017-08-23T12:54:41.730Z,4.30
2017-08-23T12:57:09.292Z,4.30
2017-08-23T12:59:36.854Z,3.97
2017-08-23T13:02:04.294Z,4.30
2017-08-23T13:04:31.761Z,4.07
2017-08-23T13:06:59.985Z,4.00
2017-08-23T13:09:27.446Z,4.87
2017-08-23T13:11:55.144Z,4.10
2017-08-23T13:14:22.591Z,4.77
2017-08-23T13:16:50.063Z,4.23
2017-08-23T13:19:17.558Z,4.00
2017-08-23T13:21:45.096Z,3.53
2017-08-23T13:24:12.531Z,3.83
2017-08-23T13:26:39.997Z,4.30
2017-08-23T13:29:07.466Z,5.13
2017-08-23T13:31:34.912Z,4.53
2017-08-23T13:34:02.383Z,3.97
2017-08-23T13:36:29.869Z,3.83
2017-08-23T13:38:57.312Z,3.90
2017-08-23T13:41:24.995Z,4.07
2017-08-23T13:43:52.474Z,4.10
2017-08-23T13:46:19.922Z,4.27
2017-08-23T13:48:47.360Z,3.80
2017-08-23T13:51:14.841Z,4.00
2017-08-23T13:53:42.305Z,4.30
2017-08-23T13:56:09.744Z,3.80
2017-08-23T13:58:38.988Z,4.67
2017-08-23T14:01:06.509Z,3.90
2017-08-23T14:03:34.005Z,4.20
2017-08-23T14:06:01.478Z,3.70
2017-08-23T14:08:28.908Z,3.60
2017-08-23T14:10:56.352Z,3.80
2017-08-23T14:13:24.616Z,4.03
2017-08-23T14:15:52.136Z,4.00
2017-08-23T14:18:19.591Z,4.30
2017-08-23T14:20:47.044Z,3.77
2017-08-23T14:23:14.516Z,4.30
2017-08-23T14:25:41.979Z,3.87
2017-08-23T14:28:09.425Z,4.07
2017-08-23T14:30:36.923Z,4.00
2017-08-23T14:33:04.349Z,4.03
2017-08-23T14:35:31.892Z,4.30
2017-08-23T14:37:59.512Z,4.20
2017-08-23T14:40:26.999Z,4.20
2017-08-23T14:42:54.465Z,4.83
2017-08-23T14:45:21.939Z,4.13
2017-08-23T14:47:49.367Z,3.80
2017-08-23T14:50:16.823Z,4.50
2017-08-23T14:52:44.271Z,4.53
2017-08-23T14:55:11.758Z,4.20
2017-08-23T14:57:39.223Z,4.30
2017-08-23T15:00:06.715Z,4.60
2017-08-23T15:02:34.147Z,4.30
2017-08-23T15:05:01.658Z,4.73
2017-08-23T15:07:29.139Z,4.17
2017-08-23T15:09:56.588Z,4.40
2017-08-23T15:12:24.054Z,4.30
2017-08-23T15:14:51.528Z,4.47
2017-08-23T15:17:19.009Z,4.40
2017-08-23T15:19:46.457Z,4.27
2017-08-23T15:22:13.976Z,4.30
2017-08-23T15:24:41.449Z,5.27
2017-08-23T15:27:08.898Z,4.17
2017-08-23T15:29:36.390Z,4.50
2017-08-23T15:32:03.868Z,4.53
2017-08-23T15:34:31.336Z,4.20
2017-08-23T15:36:59.563Z,4.07
2017-08-23T15:39:27.012Z,4.13
2017-08-23T15:41:54.521Z,4.27
2017-08-23T15:44:21.983Z,4.50
2017-08-23T15:46:49.480Z,4.90
2017-08-23T15:49:16.918Z,4.20
2017-08-23T15:51:44.368Z,4.27
2017-08-23T15:54:11.975Z,4.60
2017-08-23T15:56:39.423Z,4.70
2017-08-23T15:59:06.940Z,4.50
2017-08-23T16:01:34.416Z,4.30
2017-08-23T16:04:01.909Z,4.10
2017-08-23T16:06:29.998Z,4.50
2017-08-23T16:08:57.473Z,4.33
2017-08-23T16:11:25.034Z,4.97
2017-08-23T16:13:52.560Z,4.87
2017-08-23T16:16:20.158Z,4.60
2017-08-23T16:18:47.639Z,4.50
2017-08-23T16:21:15.115Z,4.73
2017-08-23T16:23:42.553Z,5.43
2017-08-23T16:26:10.016Z,4.53
2017-08-23T16:28:37.455Z,5.00
2017-08-23T16:31:04.908Z,4.73
2017-08-23T16:33:32.376Z,5.60
2017-08-23T16:35:59.832Z,5.03
2017-08-23T16:38:27.352Z,4.90
2017-08-23T16:40:54.768Z,5.60
2017-08-23T16:43:22.297Z,5.73
2017-08-23T16:45:49.744Z,4.70
2017-08-23T16:48:17.215Z,5.20
2017-08-23T16:50:44.714Z,4.13
2017-08-23T16:53:12.920Z,4.53
2017-08-23T16:55:40.380Z,4.40
2017-08-23T16:58:08.444Z,5.47
2017-08-23T17:00:35.904Z,4.27
2017-08-23T17:03:03.373Z,4.70
2017-08-23T17:05:30.831Z,5.13
2017-08-23T17:07:58.316Z,5.60
2017-08-23T17:10:26.126Z,5.00
2017-08-23T17:12:53.594Z,4.27
2017-08-23T17:15:21.040Z,4.83
2017-08-23T17:17:48.531Z,4.63
2017-08-23T17:20:16.018Z,3.93
2017-08-23T17:22:43.498Z,5.33
2017-08-23T17:25:10.994Z,4.57
2017-08-23T17:27:38.429Z,3.90
2017-08-23T17:30:05.925Z,4.27
2017-08-23T17:32:33.372Z,4.10
2017-08-23T17:35:00.836Z,4.93
2017-08-23T17:37:28.314Z,3.70
2017-08-23T17:39:55.789Z,5.50
2017-08-23T17:42:23.327Z,4.40
2017-08-23T17:44:50.760Z,4.80
2017-08-23T17:47:18.244Z,4.40
2017-08-23T17:49:45.685Z,5.27
2017-08-23T17:52:13.141Z,4.40
2017-08-23T17:54:40.599Z,4.47
2017-08-23T17:57:08.044Z,4.43
2017-08-23T17:59:35.523Z,4.50
2017-08-23T18:02:03.128Z,4.30
2017-08-23T18:04:30.598Z,4.40
2017-08-23T18:06:58.036Z,5.07
2017-08-23T18:09:25.564Z,5.00
2017-08-23T18:11:53.093Z,5.37
2017-08-23T18:14:21.241Z,4.80
2017-08-23T18:16:48.709Z,5.00
2017-08-23T18:19:16.157Z,4.67
2017-08-23T18:21:44.395Z,6.27
2017-08-23T18:24:11.872Z,5.67
2017-08-23T18:26:39.314Z,4.70
2017-08-23T18:29:06.788Z,5.50
2017-08-23T18:31:34.237Z,5.33
2017-08-23T18:34:01.701Z,5.70
2017-08-23T18:36:29.228Z,6.00
2017-08-23T18:38:56.750Z,7.10
2017-08-23T18:41:24.300Z,7.37
2017-08-23T18:43:51.761Z,6.97
2017-08-23T18:46:19.197Z,7.90
2017-08-23T18:48:46.695Z,6.30
2017-08-23T18:51:14.144Z,7.60
2017-08-23T18:53:41.608Z,7.17
2017-08-23T18:56:09.055Z,6.87
2017-08-23T18:58:39.259Z,7.73
2017-08-23T19:01:07.557Z,7.80
2017-08-23T19:03:35.013Z,8.10
2017-08-23T19:06:02.537Z,7.90
2017-08-23T19:08:29.982Z,8.10
2017-08-23T19:10:57.501Z,8.50
2017-08-23T19:13:24.965Z,9.03
2017-08-23T19:15:52.422Z,8.77
2017-08-23T19:18:19.918Z,9.13
2017-08-23T19:20:47.401Z,8.03
2017-08-23T19:23:14.888Z,9.20
2017-08-23T19:25:42.375Z,7.90
2017-08-23T19:28:09.908Z,8.33
2017-08-23T19:30:37.351Z,8.70
2017-08-23T19:33:04.805Z,7.50
2017-08-23T19:35:32.276Z,8.67
2017-08-23T19:37:59.733Z,7.10
2017-08-23T19:40:27.217Z,8.10
2017-08-23T19:42:54.658Z,8.17
2017-08-23T19:45:22.123Z,8.00
2017-08-23T19:47:49.674Z,7.60
2017-08-23T19:50:17.132Z,7.90
2017-08-23T19:52:44.712Z,7.90
2017-08-23T19:55:12.178Z,8.13
2017-08-23T19:57:39.656Z,9.23
2017-08-23T20:00:07.111Z,7.90
2017-08-23T20:02:34.576Z,7.93
2017-08-23T20:05:02.022Z,8.23
2017-08-23T20:07:29.512Z,7.57
2017-08-23T20:09:56.982Z,7.43
2017-08-23T20:12:24.432Z,7.80
2017-08-23T20:14:51.877Z,7.60
2017-08-23T20:17:19.344Z,8.27
2017-08-23T20:19:46.803Z,8.87
2017-08-23T20:22:14.261Z,8.00
2017-08-23T20:24:41.761Z,7.77
2017-08-23T20:27:09.234Z,8.30
2017-08-23T20:29:36.718Z,7.97
2017-08-23T20:32:04.202Z,7.53
2017-08-23T20:34:31.687Z,8.13
2017-08-23T20:36:59.110Z,7.00
2017-08-23T20:39:26.579Z,8.17
2017-08-23T20:41:54.067Z,9.20
2017-08-23T20:44:21.587Z,8.33
2017-08-23T20:46:49.883Z,7.63
2017-08-23T20:49:17.407Z,7.70
2017-08-23T20:51:45.109Z,12.40
2017-08-23T20:54:12.733Z,8.80
2017-08-23T20:56:40.297Z,8.20
2017-08-23T20:59:08.717Z,7.77
2017-08-23T21:01:36.187Z,8.40
2017-08-23T21:04:03.663Z,8.33
2017-08-23T21:06:31.091Z,7.67
2017-08-23T21:08:59.389Z,8.20
2017-08-23T21:11:26.873Z,7.93
2017-08-23T21:13:54.386Z,8.17
2017-08-23T21:16:21.965Z,9.07
2017-08-23T21:18:49.439Z,9.70
2017-08-23T21:21:20.709Z,8.27
2017-08-23T21:23:48.183Z,8.50
2017-08-23T21:26:15.700Z,7.80
2017-08-23T21:28:43.148Z,8.60
2017-08-23T21:31:10.638Z,8.30
2017-08-23T21:33:38.073Z,8.27
2017-08-23T21:36:05.546Z,8.40
2017-08-23T21:38:33.003Z,8.80
2017-08-23T21:41:00.444Z,8.03
2017-08-23T21:43:27.909Z,7.73
2017-08-23T21:45:55.922Z,8.67
2017-08-23T21:48:23.372Z,8.00
2017-08-23T21:50:50.839Z,7.83
2017-08-23T21:53:18.302Z,8.83
2017-08-23T21:55:45.776Z,9.80
2017-08-23T21:58:13.232Z,9.03
2017-08-23T22:00:40.691Z,8.20
2017-08-23T22:03:08.149Z,7.77
2017-08-23T22:05:35.607Z,8.40
2017-08-23T22:08:03.050Z,9.20
2017-08-23T22:10:30.517Z,8.80
2017-08-23T22:12:57.993Z,8.20
2017-08-23T22:15:25.456Z,8.53
2017-08-23T22:17:52.888Z,8.00
2017-08-23T22:20:20.343Z,7.47
2017-08-23T22:22:48.203Z,8.37
2017-08-23T22:25:16.293Z,9.07
2017-08-23T22:27:43.874Z,8.23
2017-08-23T22:30:15.356Z,8.37
2017-08-23T22:32:42.853Z,9.00
2017-08-23T22:35:10.288Z,8.80
2017-08-23T22:37:38.475Z,8.40
2017-08-23T22:40:05.916Z,7.90
2017-08-23T22:42:33.392Z,7.80
2017-08-23T22:45:00.871Z,7.83
2017-08-23T22:47:28.332Z,8.30
2017-08-23T22:49:55.788Z,7.70
2017-08-23T22:52:23.258Z,8.60
2017-08-23T22:54:50.713Z,8.20
2017-08-23T22:57:18.182Z,8.40
2017-08-23T22:59:45.640Z,8.20
2017-08-23T23:02:13.120Z,8.57
2017-08-23T23:04:40.635Z,9.20
2017-08-23T23:07:08.103Z,9.03
2017-08-23T23:09:35.562Z,8.43
2017-08-23T23:12:03.004Z,8.10
2017-08-23T23:14:30.487Z,8.00
2017-08-23T23:16:57.920Z,7.93
2017-08-23T23:19:25.401Z,9.43
2017-08-23T23:21:52.918Z,8.00
2017-08-23T23:24:20.340Z,8.70
2017-08-23T23:26:47.823Z,8.53
2017-08-23T23:29:15.279Z,7.80
2017-08-23T23:31:42.732Z,8.73
2017-08-23T23:34:10.203Z,8.13
2017-08-23T23:36:37.657Z,7.77
2017-08-23T23:39:05.137Z,8.70
2017-08-23T23:41:32.593Z,7.60
2017-08-23T23:44:00.803Z,7.90
2017-08-23T23:46:28.304Z,7.80
2017-08-23T23:48:55.754Z,7.60
2017-08-23T23:51:23.217Z,7.80
2017-08-23T23:53:50.676Z,8.90
2017-08-23T23:56:19.076Z,9.00
2017-08-23T23:58:46.546Z,8.17
